Infanta, Philippines
Current Conditions -  °F | °C
As of 1:00 PM on Friday 31 Oct 2014 (Local Time) from RPLL Reporting Station
Scattered Clouds Scattered Clouds  
Wind Chill: 86°   Ceiling: Unl
Heat Index: 93°   Visibility: 6mi
Dew Point: 73°   Wind: 7mph
Humidity: 66%   Direction: 40°NE
Pressure: 29.77"   Gusts: NA
Location:  14.74°N, 121.65°E
Report Text: RPLL 310500Z 04006KT 320V090 9999 FEW025 SCT100 30/23 Q1008 RESH NOSIG RMK A2977
Loading
Personal Weather Stations






























Interactive Weather Map
Tropical Storm Tracking
New forecast layout! Learn more

10-Day Weather Forecast

Advertisements
Track Severe Weather on mobile